createdAt,value
2023-11-26T19:50:51.240Z,9.80
2023-11-26T19:51:51.211Z,14.90
2023-11-26T19:52:51.100Z,22.00
2023-11-26T19:53:51.083Z,23.30
2023-11-26T19:54:51.061Z,23.80
2023-11-26T19:55:50.943Z,22.50
2023-11-26T19:56:50.883Z,20.50
2023-11-26T19:57:50.849Z,22.90
2023-11-26T19:58:50.794Z,21.30
2023-11-26T19:59:53.362Z,22.80
2023-11-26T20:00:50.749Z,24.00
2023-11-26T20:01:50.719Z,20.60
2023-11-26T20:02:50.720Z,23.70
2023-11-26T20:03:50.644Z,24.40
2023-11-26T20:04:50.496Z,21.60
2023-11-26T20:05:50.438Z,26.70
2023-11-26T20:06:50.457Z,20.90
2023-11-26T20:07:50.346Z,22.20
2023-11-26T20:08:50.294Z,22.50
2023-11-26T20:09:50.271Z,25.50
2023-11-26T20:10:50.208Z,20.80
2023-11-26T20:11:50.154Z,22.10
2023-11-26T20:12:50.139Z,21.90
2023-11-26T20:13:50.058Z,21.20
2023-11-26T20:14:50.013Z,19.50
2023-11-26T20:15:49.976Z,21.40
2023-11-26T20:16:49.917Z,18.40
2023-11-26T20:17:50.089Z,22.40
2023-11-26T20:18:49.852Z,20.40
2023-11-26T20:19:49.868Z,21.80
2023-11-26T20:20:49.732Z,19.80
2023-11-26T20:21:49.728Z,18.00
2023-11-26T20:22:49.685Z,19.50
2023-11-26T20:23:49.652Z,19.60
2023-11-26T20:24:49.670Z,17.70
2023-11-26T20:25:49.518Z,19.70
2023-11-26T20:26:49.457Z,17.90
2023-11-26T20:27:49.451Z,18.00
2023-11-26T20:28:49.364Z,18.50
2023-11-26T20:29:49.504Z,15.90
2023-11-26T20:30:51.584Z,17.20
2023-11-26T20:31:49.259Z,19.10
2023-11-26T20:33:49.260Z,18.00
2023-11-26T20:34:49.133Z,17.40
2023-11-26T20:35:49.042Z,17.70
2023-11-26T20:36:49.027Z,18.40
2023-11-26T20:37:48.977Z,15.50
2023-11-26T20:38:48.961Z,15.10
2023-11-26T20:39:48.934Z,14.40
2023-11-26T20:40:48.804Z,16.90
2023-11-26T20:41:48.850Z,16.20
2023-11-26T20:42:48.743Z,14.90
2023-11-26T20:43:48.682Z,14.60
2023-11-26T20:44:48.639Z,15.90
2023-11-26T20:50:48.761Z,15.00
2023-11-26T20:51:48.350Z,13.50
2023-11-26T20:52:48.259Z,20.00
2023-11-26T20:53:48.208Z,15.00
2023-11-26T20:54:48.234Z,14.90
2023-11-26T20:55:48.130Z,15.30
2023-11-26T20:56:48.069Z,14.50
2023-11-26T20:57:48.091Z,15.00
2023-11-26T20:58:47.973Z,19.20
2023-11-26T20:59:47.926Z,17.50
2023-11-26T21:00:47.915Z,13.10
2023-11-26T21:01:47.936Z,13.60
2023-11-26T21:02:47.855Z,13.00
2023-11-26T21:03:47.912Z,13.10
2023-11-26T21:04:47.715Z,16.20
2023-11-26T21:05:47.665Z,13.50
2023-11-26T21:06:47.693Z,14.10
2023-11-26T21:07:47.558Z,11.70
2023-11-26T21:08:47.512Z,12.80
2023-11-26T21:09:47.489Z,14.00
2023-11-26T21:10:47.444Z,14.00
2023-11-26T21:11:47.372Z,12.30
2023-11-26T21:12:47.366Z,17.90
2023-11-26T21:14:30.688Z,16.80
2023-11-26T21:15:30.618Z,12.40
2023-11-26T21:16:30.616Z,18.30
2023-11-26T21:17:30.549Z,14.90
2023-11-26T21:18:30.479Z,18.70
2023-11-26T21:19:30.437Z,15.60
2023-11-26T21:20:30.392Z,15.50
2023-11-26T21:21:30.336Z,14.30
2023-11-26T21:22:30.297Z,13.70
2023-11-26T21:24:30.202Z,12.80
2023-11-26T21:25:30.148Z,15.30
2023-11-26T21:26:30.169Z,14.50
2023-11-26T21:27:30.051Z,17.70
2023-11-26T21:28:30.005Z,13.10
2023-11-26T21:29:29.970Z,14.10
2023-11-26T21:30:29.921Z,12.90
2023-11-26T21:31:29.863Z,19.10
2023-11-26T21:32:29.887Z,14.50
2023-11-26T21:33:29.792Z,15.90
2023-11-26T21:34:29.880Z,13.50
2023-11-26T21:35:29.685Z,12.80
2023-11-26T21:36:29.624Z,15.00
2023-11-26T21:37:29.598Z,16.30
2023-11-26T21:38:29.540Z,13.50
2023-11-26T21:39:29.485Z,13.70
2023-11-26T21:40:29.432Z,15.70
2023-11-26T21:41:29.395Z,13.40
2023-11-26T21:42:29.355Z,11.80
2023-11-26T21:43:29.292Z,13.60
2023-11-26T21:44:29.241Z,13.20
2023-11-26T21:45:29.213Z,13.00
2023-11-26T21:46:35.773Z,13.70
2023-11-26T21:47:29.229Z,14.90
2023-11-26T21:48:29.049Z,11.90
2023-11-26T21:49:29.002Z,11.90
2023-11-26T21:50:28.955Z,13.40
2023-11-26T21:51:28.907Z,12.80
2023-11-26T21:52:28.877Z,13.80
2023-11-26T21:54:12.232Z,14.60
2023-11-26T21:55:12.202Z,13.20
2023-11-26T21:56:12.113Z,9.80
2023-11-26T21:57:12.069Z,13.60
2023-11-26T21:58:12.093Z,12.30
2023-11-26T21:59:11.965Z,13.80
2023-11-26T22:00:11.929Z,11.10
2023-11-26T22:01:11.940Z,9.10
2023-11-26T22:02:11.911Z,12.60
2023-11-26T22:03:11.888Z,13.00
2023-11-26T22:04:11.751Z,12.80
2023-11-26T22:05:11.679Z,10.80
2023-11-26T22:06:11.633Z,12.80
2023-11-26T22:07:11.637Z,12.50
2023-11-26T22:08:11.534Z,11.70
2023-11-26T22:09:11.486Z,13.80
2023-11-26T22:10:11.495Z,13.50
2023-11-26T22:11:11.400Z,10.00
2023-11-26T22:12:11.351Z,10.10
2023-11-26T22:13:11.354Z,10.50
2023-11-26T22:14:11.291Z,10.70
2023-11-26T22:15:11.198Z,11.70
2023-11-26T22:16:11.195Z,8.70
2023-11-26T22:17:11.160Z,13.60
2023-11-26T22:18:11.131Z,12.40
2023-11-26T22:19:11.047Z,11.80
2023-11-26T22:20:10.958Z,14.10
2023-11-26T22:21:10.920Z,10.10
2023-11-26T22:22:10.895Z,11.70
2023-11-26T22:23:12.235Z,9.00
2023-11-26T22:24:10.774Z,8.80
2023-11-26T22:25:10.745Z,11.80
2023-11-26T22:26:10.673Z,10.00
2023-11-26T22:27:10.621Z,9.60
2023-11-26T22:28:10.617Z,9.80
2023-11-26T22:29:10.526Z,9.20
2023-11-26T22:30:12.841Z,11.50
2023-11-26T22:31:10.469Z,12.20
2023-11-26T22:32:10.432Z,9.00
2023-11-26T22:33:10.351Z,10.30
2023-11-26T22:34:10.376Z,8.30
2023-11-26T22:35:10.234Z,10.90
2023-11-26T22:36:10.198Z,11.10
2023-11-26T22:37:10.176Z,10.90
2023-11-26T22:38:10.419Z,8.50
2023-11-26T22:39:10.066Z,11.80
2023-11-26T22:40:10.023Z,7.60
2023-11-26T22:41:09.955Z,9.70
2023-11-26T22:42:09.952Z,9.60
2023-11-26T22:43:09.920Z,11.00
2023-11-26T22:44:09.812Z,8.90
2023-11-26T22:45:09.755Z,6.70
2023-11-26T22:46:09.792Z,12.10
2023-11-26T22:47:09.685Z,9.20
2023-11-26T22:48:09.613Z,11.20
2023-11-26T22:49:09.579Z,9.50
2023-11-26T22:50:09.513Z,8.20
2023-11-26T22:51:09.466Z,9.60
2023-11-26T22:52:09.482Z,9.20
2023-11-26T22:53:09.370Z,9.00
2023-11-26T22:54:09.319Z,6.50
2023-11-26T22:55:09.332Z,7.10
2023-11-26T22:56:09.237Z,11.60
2023-11-26T22:57:09.178Z,7.30
2023-11-26T22:58:09.155Z,9.90
2023-11-26T22:59:09.079Z,7.40
2023-11-26T23:00:09.032Z,8.40
2023-11-26T23:01:09.054Z,7.70
2023-11-26T23:02:09.074Z,9.00
2023-11-26T23:03:09.150Z,11.20
2023-11-26T23:04:08.922Z,9.40
2023-11-26T23:05:08.791Z,7.60
2023-11-26T23:06:08.760Z,6.40
2023-11-26T23:07:08.781Z,10.80
2023-11-26T23:08:08.675Z,7.70
2023-11-26T23:09:08.609Z,12.20
2023-11-26T23:10:08.582Z,7.80
2023-11-26T23:11:08.502Z,7.50
2023-11-26T23:12:08.456Z,8.30
2023-11-26T23:13:08.444Z,8.20
2023-11-26T23:14:08.360Z,8.80
2023-11-26T23:15:08.307Z,7.50
2023-11-26T23:16:08.318Z,7.20
2023-11-26T23:17:08.234Z,7.80
2023-11-26T23:18:08.304Z,7.10
2023-11-26T23:19:08.142Z,9.60
2023-11-26T23:20:08.071Z,9.00
2023-11-26T23:21:08.022Z,6.60
2023-11-26T23:22:08.028Z,8.10
2023-11-26T23:23:07.925Z,8.10
2023-11-26T23:24:07.877Z,7.90
2023-11-26T23:26:07.776Z,7.00
2023-11-26T23:27:07.728Z,6.90
2023-11-26T23:28:07.765Z,6.60
2023-11-26T23:30:07.853Z,6.10
2023-11-26T23:31:07.551Z,5.50
2023-11-26T23:32:07.504Z,5.70
2023-11-26T23:33:07.548Z,8.60
2023-11-26T23:34:07.466Z,8.40
2023-11-26T23:35:07.339Z,6.80
2023-11-26T23:36:07.326Z,5.90
2023-11-26T23:37:07.274Z,9.00
2023-11-26T23:38:07.213Z,9.70
2023-11-26T23:39:07.143Z,6.90
2023-11-26T23:40:07.115Z,7.60
2023-11-26T23:41:09.302Z,5.40
2023-11-26T23:42:07.009Z,6.00
2023-11-26T23:43:07.006Z,9.00
2023-11-26T23:44:06.907Z,7.20
2023-11-26T23:45:06.874Z,9.40
2023-11-26T23:46:06.925Z,5.40
2023-11-26T23:47:06.795Z,6.40
2023-11-26T23:48:06.772Z,5.70
2023-11-26T23:49:09.287Z,8.10
2023-11-26T23:50:06.636Z,7.50
2023-11-26T23:51:06.570Z,6.50
2023-11-26T23:52:06.569Z,6.90
2023-11-26T23:53:06.476Z,6.60
2023-11-26T23:54:06.419Z,7.10
